Aviation Digital Data Service (ADDS)

Output produced by METARs form (1711 UTC 30 July 2014)
found at http://aviationweather.gov/adds/metars/
 
KPBG 301124Z 3012/3112 VRB02KT P6SM BKN080 
     FM301400 14005KT P6SM SCT045 SCT080 
     FM310000 00000KT P6SM SCT045 BKN100